Flight Track Log - Related Links

Times and Time Zones

All times are in EDT time to prevent confusion due to time zone crossing. See the N2042B flight status page for this flight to view local times or setup timezone preferences in your user account.

Time Position Orientation Groundspeed Altitude Reporting Facility
EDT Latitude Longitude Course Direction KTS MPH feet Rate Location/Type
Fri 07:01:34 PM 40.5333 -74.6333 270° West 157 181 1,300  Level New York TRACON
Fri 07:02:34 PM 40.5333 -74.6833 270° West 118 136 2,400 148 Climbing New York TRACON
Fri 07:04:00 PM 40.5667 -74.7678 270° West  Level FlightAware Approximate
Fri 07:11:00 PM 40.5416 -75.2409 281° West  Level FlightAware Approximate
Fri 07:12:00 PM 40.5504 -75.3081 273° West  Level FlightAware Approximate
Fri 07:13:00 PM 40.5534 -75.3763 273° West  Level FlightAware Approximate
Fri 07:14:00 PM 40.5564 -75.4444 273° West  Level FlightAware Approximate
Fri 07:15:00 PM 40.5594 -75.5126 273° West  Level FlightAware Approximate
Fri 07:16:00 PM 40.5623 -75.5808 273° West  Level FlightAware Approximate
Fri 07:17:00 PM 40.5652 -75.6489 273° West  Level FlightAware Approximate
Fri 07:18:00 PM 40.5486 -75.7075 225° Southwest  Level FlightAware Approximate
Fri 07:19:00 PM 40.5122 -75.7561 225° Southwest  Level FlightAware Approximate
Fri 07:20:00 PM 40.4758 -75.8047 225° Southwest  Level FlightAware Approximate
Fri 07:21:00 PM 40.4393 -75.8532 225° Southwest  Level FlightAware Approximate
Fri 07:22:00 PM 40.4029 -75.9017 225° Southwest  Level FlightAware Approximate
Fri 07:23:00 PM 40.3665 -75.9502 226° Southwest  Level FlightAware Approximate
Fri 07:24:00 PM 40.3302 -75.9988 226° Southwest  Level FlightAware Approximate
Fri 07:25:00 PM 40.2938 -76.0473 225° Southwest  Level FlightAware Approximate
Fri 07:26:00 PM 40.2574 -76.0957 226° Southwest  Level FlightAware Approximate
Fri 07:27:00 PM 40.2211 -76.1443 226° Southwest  Level FlightAware Approximate
Fri 07:28:00 PM 40.1847 -76.1927 226° Southwest  Level FlightAware Approximate
Fri 07:29:00 PM 40.1484 -76.2412 226° Southwest  Level FlightAware Approximate
Fri 07:30:00 PM 40.1112 -76.2883 215° Southwest  Level FlightAware Approximate
Fri 07:31:00 PM 40.0685 -76.3268 215° Southwest  Level FlightAware Approximate
Fri 07:32:00 PM 40.0258 -76.3652 215° Southwest  Level FlightAware Approximate
Fri 07:33:00 PM 39.9830 -76.4037 215° Southwest  Level FlightAware Approximate
Fri 07:34:00 PM 39.9400 -76.4414 212° Southwest  Level FlightAware Approximate
Fri 07:34:00 PM 40.0833 -76.3167 228° Southwest 161 185 6,100  Level Potomac TRACON
Fri 07:35:00 PM 39.8958 -76.4768 212° Southwest  Level FlightAware Approximate
Fri 07:35:00 PM 40.0500 -76.3500 217° Southwest 160 184 6,100  Level Potomac TRACON
Fri 07:36:00 PM 39.8518 -76.5127 213° Southwest  Level FlightAware Approximate
Fri 07:36:01 PM 40.0167 -76.3833 217° Southwest 163 188 6,100  Level Potomac TRACON
Fri 07:37:00 PM 39.8085 -76.5499 213° Southwest  Level FlightAware Approximate
Fri 07:37:01 PM 39.9833 -76.4167 217° Southwest 163 188 6,100  Level Potomac TRACON
Fri 07:38:00 PM 39.7652 -76.5870 213° Southwest  Level FlightAware Approximate
Fri 07:38:01 PM 39.9333 -76.4500 207° Southwest 162 186 6,100  Level Potomac TRACON
Fri 07:39:00 PM 39.7274 -76.6325 228° Southwest  Level FlightAware Approximate
Fri 07:39:01 PM 39.9000 -76.4833 217° Southwest 162 186 6,100  Level Potomac TRACON
Fri 07:40:02 PM 39.8667 -76.5167 218° Southwest 166 191 6,000  Descending Potomac TRACON
Fri 07:41:02 PM 39.8333 -76.5667 229° Southwest 171 197 6,100 50 Climbing Potomac TRACON
Fri 07:42:02 PM 39.8167 -76.6167 247° West 169 194 6,100  Level Potomac TRACON
Fri 07:43:03 PM 39.7833 -76.6667 229° Southwest 167 192 6,100  Level Potomac TRACON
Fri 07:44:03 PM 39.7667 -76.7167 247° West 166 191 6,100 -200 Level Potomac TRACON
Fri 07:45:03 PM 39.7333 -76.7667 229° Southwest 169 194 5,700 -446 Descending Potomac TRACON
Fri 07:46:04 PM 39.7000 -76.8167 229° Southwest 172 198 5,200 -496 Descending Potomac TRACON
Fri 07:47:04 PM 39.6833 -76.8667 247° West 167 192 4,700 -500 Descending Potomac TRACON
Fri 07:48:04 PM 39.6500 -76.9167 229° Southwest 169 194 4,200 -300 Descending Potomac TRACON
Fri 07:49:04 PM 39.6333 -76.9667 247° West 166 191 4,100 -50 Descending Potomac TRACON
Fri 07:50:05 PM 39.6000 -77.0167 229° Southwest 159 183 4,100  Level Potomac TRACON
Fri 07:51:05 PM 39.5833 -77.0667 247° West 155 178 4,100 -100 Level Potomac TRACON
Fri 07:52:05 PM 39.5500 -77.1167 229° Southwest 160 184 3,900 -397 Descending Potomac TRACON
Fri 07:53:06 PM 39.5333 -77.1667 247° West 168 193 3,300 -397 Descending Potomac TRACON
Fri 07:54:06 PM 39.5000 -77.2167 229° Southwest 154 177 3,100 -209 Descending Potomac TRACON
Fri 07:55:01 PM 39.4833 -77.2500 237° Southwest 141 162 2,900 -218 Descending Potomac TRACON

Login

Don't have an account? Register now (free) for customized features, flight alerts, and more!